sim
Sign-in with your pilot id or email,
or register
Callsign
Passwort

Schedule Details

Flight Number: OEO8962
Departure: Stuttgart Airport (EDDS) at 11:15
Arrival: Gothenburg Landvetter Airport (ESGG) at 13:15

Weather Information
Getting current METAR information for EDDS 271650Z 20004KT 170V230 9999 FEW030 09/04 Q1012 NOSIG
Getting current METAR information for ESGG 271650Z 19016KT 9999 FEW027 BKN047 BKN061 08/06 Q0999

Schedule Frequency

Route Map